createdAt,value
2022-09-18T00:01:25.558Z,1.33
2022-09-18T00:03:57.112Z,1.60
2022-09-18T00:06:26.734Z,1.30
2022-09-18T00:08:57.467Z,1.40
2022-09-18T00:11:27.568Z,1.53
2022-09-18T00:13:56.230Z,1.63
2022-09-18T00:16:26.558Z,1.40
2022-09-18T00:18:55.404Z,1.50
2022-09-18T00:21:25.146Z,1.60
2022-09-18T00:23:54.235Z,1.37
2022-09-18T00:26:22.784Z,1.50
2022-09-18T00:28:51.328Z,1.60
2022-09-18T00:31:21.358Z,1.83
2022-09-18T00:33:51.284Z,1.70
2022-09-18T00:36:20.349Z,1.80
2022-09-18T00:38:49.221Z,2.10
2022-09-18T00:41:19.460Z,1.50
2022-09-18T00:43:48.001Z,1.63
2022-09-18T00:46:21.727Z,1.70
2022-09-18T00:48:53.513Z,1.70
2022-09-18T00:51:22.269Z,1.53
2022-09-18T00:53:53.424Z,1.43
2022-09-18T00:56:22.014Z,1.43
2022-09-18T00:58:50.693Z,1.63
2022-09-18T01:01:19.418Z,1.17
2022-09-18T01:03:48.012Z,1.30
2022-09-18T01:06:22.891Z,1.10
2022-09-18T01:08:57.202Z,1.10
2022-09-18T01:11:30.537Z,1.17
2022-09-18T01:14:04.922Z,1.30
2022-09-18T01:16:37.803Z,1.00
2022-09-18T01:19:13.842Z,0.93
2022-09-18T01:21:45.827Z,1.10
2022-09-18T01:24:35.153Z,1.10
2022-09-18T01:27:04.873Z,1.37
2022-09-18T01:29:49.660Z,1.50
2022-09-18T01:32:22.720Z,1.40
2022-09-18T01:34:56.357Z,1.40
2022-09-18T01:37:29.963Z,1.40
2022-09-18T01:40:00.159Z,1.80
2022-09-18T01:42:30.530Z,1.90
2022-09-18T01:45:02.716Z,1.80
2022-09-18T01:47:34.521Z,2.50
2022-09-18T01:50:04.514Z,2.17
2022-09-18T01:52:35.019Z,2.47
2022-09-18T01:55:06.288Z,2.40
2022-09-18T01:57:36.512Z,2.40
2022-09-18T02:00:08.273Z,2.07
2022-09-18T02:02:41.101Z,2.20
2022-09-18T02:05:11.275Z,2.00
2022-09-18T02:07:43.484Z,1.70
2022-09-18T02:10:12.012Z,1.50
2022-09-18T02:12:42.081Z,1.30
2022-09-18T02:15:13.788Z,1.20
2022-09-18T02:17:43.856Z,1.60
2022-09-18T02:20:14.758Z,1.10
2022-09-18T02:22:44.908Z,1.33
2022-09-18T02:25:15.152Z,1.50
2022-09-18T02:27:44.090Z,1.70
2022-09-18T02:30:14.312Z,1.43
2022-09-18T02:32:43.266Z,1.00
2022-09-18T02:35:12.023Z,1.00
2022-09-18T02:37:44.805Z,0.90
2022-09-18T02:40:19.959Z,1.00
2022-09-18T02:42:54.427Z,0.87
2022-09-18T02:45:29.013Z,0.93
2022-09-18T02:48:06.776Z,0.70
2022-09-18T02:50:39.848Z,0.70
2022-09-18T02:53:11.400Z,0.60
2022-09-18T02:55:44.515Z,0.57
2022-09-18T02:58:16.043Z,0.53
2022-09-18T03:00:46.147Z,0.50
2022-09-18T03:03:15.652Z,0.70
2022-09-18T03:05:44.525Z,0.60
2022-09-18T03:08:13.418Z,1.03
2022-09-18T03:10:43.021Z,1.10
2022-09-18T03:13:11.550Z,1.07
2022-09-18T03:15:40.118Z,1.20
2022-09-18T03:18:10.009Z,1.30
2022-09-18T03:20:40.262Z,1.60
2022-09-18T03:23:08.813Z,1.60
2022-09-18T03:25:37.361Z,2.10
2022-09-18T03:28:05.958Z,1.90
2022-09-18T03:30:34.541Z,2.10
2022-09-18T03:33:03.135Z,2.20
2022-09-18T03:35:33.163Z,2.00
2022-09-18T03:38:01.719Z,2.23
2022-09-18T03:40:30.320Z,2.00
2022-09-18T03:42:58.904Z,2.53
2022-09-18T03:45:27.735Z,1.90
2022-09-18T03:47:56.618Z,2.07
2022-09-18T03:50:25.139Z,2.00
2022-09-18T03:52:55.817Z,1.70
2022-09-18T03:55:24.608Z,2.00
2022-09-18T03:57:53.157Z,1.77
2022-09-18T04:00:21.669Z,2.50
2022-09-18T04:02:50.280Z,2.50
2022-09-18T04:05:18.983Z,2.40
2022-09-18T04:07:47.515Z,2.70
2022-09-18T04:10:17.533Z,3.63
2022-09-18T04:12:47.675Z,3.30
2022-09-18T04:15:16.320Z,3.20
2022-09-18T04:17:45.057Z,3.63
2022-09-18T04:20:13.587Z,3.80
2022-09-18T04:22:42.109Z,3.93
2022-09-18T04:25:11.147Z,4.17
2022-09-18T04:27:41.074Z,4.03
2022-09-18T04:30:10.514Z,4.00
2022-09-18T04:32:39.020Z,3.80
2022-09-18T04:35:08.147Z,4.20
2022-09-18T04:37:36.713Z,3.80
2022-09-18T04:40:05.578Z,4.13
2022-09-18T04:42:34.496Z,3.53
2022-09-18T04:45:04.504Z,3.57
2022-09-18T04:47:33.037Z,3.33
2022-09-18T04:50:01.547Z,3.53
2022-09-18T04:52:30.070Z,3.20
2022-09-18T04:54:58.707Z,3.37
2022-09-18T04:57:27.217Z,3.20
2022-09-18T04:59:55.761Z,3.10
2022-09-18T05:02:25.790Z,2.83
2022-09-18T05:04:54.361Z,2.73
2022-09-18T05:07:22.882Z,2.77
2022-09-18T05:09:51.730Z,2.60
2022-09-18T05:12:20.556Z,2.50
2022-09-18T05:14:49.075Z,2.60
2022-09-18T05:17:17.859Z,2.90
2022-09-18T05:19:47.749Z,2.53
2022-09-18T05:22:16.274Z,2.53
2022-09-18T05:24:44.800Z,2.50
2022-09-18T05:27:13.312Z,2.40
2022-09-18T05:29:41.827Z,2.40
2022-09-18T05:32:10.357Z,2.40
2022-09-18T05:34:38.877Z,2.30
2022-09-18T05:37:10.287Z,2.20
2022-09-18T05:39:38.810Z,1.93
2022-09-18T05:42:07.667Z,2.30
2022-09-18T05:44:36.213Z,2.57
2022-09-18T05:47:04.805Z,1.93
2022-09-18T05:49:33.333Z,1.93
2022-09-18T05:52:01.850Z,2.00
2022-09-18T05:54:32.081Z,1.80
2022-09-18T05:57:00.609Z,2.17
2022-09-18T05:59:29.272Z,2.33
2022-09-18T06:01:57.847Z,2.00
2022-09-18T06:04:26.408Z,1.80
2022-09-18T06:06:55.005Z,1.87
2022-09-18T06:09:23.541Z,2.00
2022-09-18T06:11:53.400Z,1.80
2022-09-18T06:14:21.964Z,1.67
2022-09-18T06:16:50.524Z,1.80
2022-09-18T06:19:19.092Z,2.07
2022-09-18T06:21:47.596Z,1.63
2022-09-18T06:24:16.125Z,2.03
2022-09-18T06:26:44.641Z,2.20
2022-09-18T06:29:14.501Z,1.70
2022-09-18T06:31:43.132Z,1.93
2022-09-18T06:34:11.737Z,1.47
2022-09-18T06:36:40.495Z,1.87
2022-09-18T06:39:09.043Z,1.80
2022-09-18T06:41:37.565Z,1.97
2022-09-18T06:44:06.068Z,2.33
2022-09-18T06:46:36.016Z,2.27
2022-09-18T06:49:04.593Z,2.30
2022-09-18T06:51:33.126Z,2.20
2022-09-18T06:54:01.729Z,2.20
2022-09-18T06:56:30.303Z,2.00
2022-09-18T06:58:58.840Z,2.33
2022-09-18T07:01:27.396Z,2.03
2022-09-18T07:03:57.350Z,2.13
2022-09-18T07:06:26.419Z,2.00
2022-09-18T07:08:55.097Z,2.10
2022-09-18T07:11:23.627Z,2.20
2022-09-18T07:13:53.169Z,2.00
2022-09-18T07:16:21.826Z,2.00
2022-09-18T07:18:50.487Z,2.33
2022-09-18T07:21:20.880Z,1.90
2022-09-18T07:23:49.477Z,2.00
2022-09-18T07:26:19.042Z,1.87
2022-09-18T07:28:47.707Z,1.97
2022-09-18T07:31:16.336Z,2.00
2022-09-18T07:33:45.017Z,2.30
2022-09-18T07:36:13.573Z,1.83
2022-09-18T07:38:43.479Z,2.00
2022-09-18T07:41:12.008Z,2.40
2022-09-18T07:43:40.541Z,2.43
2022-09-18T07:46:09.121Z,2.30
2022-09-18T07:48:38.699Z,2.17
2022-09-18T07:51:07.685Z,2.20
2022-09-18T07:53:37.497Z,2.40
2022-09-18T07:56:09.908Z,2.60
2022-09-18T07:58:38.510Z,2.30
2022-09-18T08:01:07.605Z,2.70
2022-09-18T08:03:41.201Z,2.10
2022-09-18T08:06:10.167Z,2.83
2022-09-18T08:08:38.723Z,2.27
2022-09-18T08:11:07.383Z,2.07
2022-09-18T08:13:37.284Z,2.17
2022-09-18T08:16:06.181Z,2.53
2022-09-18T08:18:36.140Z,2.40
2022-09-18T08:21:08.555Z,2.90
2022-09-18T08:23:39.118Z,2.40
2022-09-18T08:26:07.962Z,2.53
2022-09-18T08:28:38.287Z,2.33
2022-09-18T08:31:07.047Z,2.30
2022-09-18T08:33:35.682Z,2.20
2022-09-18T08:36:04.373Z,2.60
2022-09-18T08:38:32.934Z,2.37
2022-09-18T08:41:09.116Z,2.03
2022-09-18T08:43:47.685Z,2.40
2022-09-18T08:46:18.483Z,2.23
2022-09-18T08:48:50.747Z,2.20
2022-09-18T08:51:21.380Z,2.10
2022-09-18T08:53:51.723Z,2.20
2022-09-18T08:56:23.751Z,2.07
2022-09-18T08:58:56.134Z,2.30
2022-09-18T09:01:27.513Z,2.53
2022-09-18T09:03:59.209Z,2.40
2022-09-18T09:06:37.385Z,2.53
2022-09-18T09:09:21.486Z,2.30
2022-09-18T09:11:52.676Z,2.40
2022-09-18T09:14:55.586Z,2.90
2022-09-18T09:17:21.329Z,2.60
2022-09-18T09:19:53.124Z,2.33
2022-09-18T09:22:23.043Z,2.27
2022-09-18T09:24:58.500Z,2.57
2022-09-18T09:27:29.401Z,2.40
2022-09-18T09:30:02.865Z,3.13
2022-09-18T09:32:33.583Z,2.90
2022-09-18T09:35:05.042Z,2.33
2022-09-18T09:37:38.396Z,2.60
2022-09-18T09:40:09.322Z,2.70
2022-09-18T09:42:42.964Z,2.70
2022-09-18T09:45:16.007Z,3.07
2022-09-18T09:47:45.581Z,3.37
2022-09-18T09:50:21.683Z,3.30
2022-09-18T09:52:50.267Z,2.73
2022-09-18T09:55:22.260Z,2.90
2022-09-18T09:57:55.556Z,2.80
2022-09-18T10:00:25.712Z,2.60
2022-09-18T10:03:04.466Z,2.97
2022-09-18T10:05:36.361Z,2.50
2022-09-18T10:08:07.845Z,2.57
2022-09-18T10:10:41.290Z,2.60
2022-09-18T10:13:14.332Z,2.70
2022-09-18T10:15:45.820Z,2.67
2022-09-18T10:18:16.585Z,3.07
2022-09-18T10:20:46.572Z,2.50
2022-09-18T10:23:16.727Z,2.60
2022-09-18T10:25:47.661Z,3.00
2022-09-18T10:28:16.237Z,2.80
2022-09-18T10:30:59.045Z,3.03
2022-09-18T10:33:35.618Z,2.80
2022-09-18T10:36:12.480Z,2.90
2022-09-18T10:38:41.036Z,2.80
2022-09-18T10:41:31.437Z,3.13
2022-09-18T10:44:01.876Z,2.60
2022-09-18T10:46:33.382Z,2.83
2022-09-18T10:49:04.644Z,2.97
2022-09-18T10:51:33.190Z,2.47
2022-09-18T10:54:04.521Z,2.43
2022-09-18T10:56:33.984Z,2.70
2022-09-18T10:59:15.800Z,2.57
2022-09-18T11:01:45.805Z,2.40
2022-09-18T11:04:17.682Z,2.60
2022-09-18T11:06:47.925Z,2.67
2022-09-18T11:09:18.769Z,2.80
2022-09-18T11:11:51.147Z,2.53
2022-09-18T11:14:22.192Z,2.50
2022-09-18T11:16:52.835Z,2.50
2022-09-18T11:19:25.216Z,2.57
2022-09-18T11:21:55.192Z,2.63
2022-09-18T11:24:25.446Z,2.87
2022-09-18T11:26:54.997Z,2.67
2022-09-18T11:29:26.089Z,2.60
2022-09-18T11:31:58.055Z,2.90
2022-09-18T11:34:28.003Z,2.70
2022-09-18T11:36:58.988Z,2.80
2022-09-18T11:39:30.156Z,2.70
2022-09-18T11:41:58.776Z,2.63
2022-09-18T11:44:29.131Z,2.80
2022-09-18T11:47:15.397Z,3.90
2022-09-18T11:49:47.036Z,3.00
2022-09-18T11:52:18.489Z,3.00
2022-09-18T11:54:51.485Z,3.07
2022-09-18T11:57:22.628Z,2.90
2022-09-18T11:59:53.472Z,3.63
2022-09-18T12:02:24.443Z,2.83
2022-09-18T12:04:56.197Z,3.23
2022-09-18T12:07:37.577Z,2.60
2022-09-18T12:10:11.813Z,3.17
2022-09-18T12:12:42.089Z,3.03
2022-09-18T12:15:13.293Z,2.93
2022-09-18T12:17:43.692Z,3.37
2022-09-18T12:20:15.360Z,3.50
2022-09-18T12:22:46.064Z,3.20
2022-09-18T12:25:15.359Z,3.30
2022-09-18T12:27:46.644Z,2.93
2022-09-18T12:30:17.368Z,2.70
2022-09-18T12:33:03.771Z,2.50
2022-09-18T12:35:38.609Z,2.50
2022-09-18T12:38:12.592Z,3.03
2022-09-18T12:40:50.857Z,2.70
2022-09-18T12:43:34.257Z,2.40
2022-09-18T12:46:10.147Z,2.40
2022-09-18T12:48:49.197Z,2.50
2022-09-18T12:51:29.141Z,2.20
2022-09-18T12:54:06.672Z,2.73
2022-09-18T12:56:41.423Z,2.70
2022-09-18T12:59:21.896Z,2.20
2022-09-18T13:01:52.920Z,2.57
2022-09-18T13:04:24.720Z,2.30
2022-09-18T13:06:57.942Z,2.00
2022-09-18T13:09:30.177Z,2.10
2022-09-18T13:12:01.041Z,2.40
2022-09-18T13:14:33.076Z,2.30
2022-09-18T13:17:04.264Z,3.37
2022-09-18T13:19:34.335Z,3.80
2022-09-18T13:22:07.679Z,3.13
2022-09-18T13:24:37.317Z,2.50
2022-09-18T13:27:08.619Z,2.37
2022-09-18T13:29:50.241Z,2.30
2022-09-18T13:32:20.191Z,2.30
2022-09-18T13:34:51.219Z,2.40
2022-09-18T13:37:22.751Z,2.60
2022-09-18T13:40:09.262Z,2.77
2022-09-18T13:42:41.423Z,2.70
2022-09-18T13:45:18.644Z,2.77
2022-09-18T13:48:02.414Z,3.00
2022-09-18T13:50:31.240Z,2.70
2022-09-18T13:53:01.915Z,2.20
2022-09-18T13:55:38.405Z,2.10
2022-09-18T13:58:25.467Z,2.20
2022-09-18T14:00:54.576Z,1.90
2022-09-18T14:03:36.633Z,2.50
2022-09-18T14:06:22.936Z,2.70
2022-09-18T14:08:52.979Z,3.40
2022-09-18T14:11:25.279Z,3.20
2022-09-18T14:13:55.248Z,3.60
2022-09-18T14:16:28.988Z,4.10
2022-09-18T14:18:59.283Z,3.50
2022-09-18T14:21:31.701Z,3.67
2022-09-18T14:24:09.203Z,3.80
2022-09-18T14:26:56.791Z,4.07
2022-09-18T14:29:28.265Z,3.73
2022-09-18T14:31:57.990Z,3.50
2022-09-18T14:34:28.682Z,3.40
2022-09-18T14:36:59.407Z,3.70
2022-09-18T14:39:29.541Z,3.63
2022-09-18T14:41:59.925Z,4.30
2022-09-18T14:44:31.671Z,4.17
2022-09-18T14:47:02.616Z,3.67
2022-09-18T14:49:35.551Z,3.60
2022-09-18T14:52:05.192Z,3.63
2022-09-18T14:54:40.868Z,3.30
2022-09-18T14:57:13.996Z,3.70
2022-09-18T14:59:44.080Z,4.07
2022-09-18T15:02:19.060Z,3.57
2022-09-18T15:04:47.918Z,3.57
2022-09-18T15:07:18.331Z,3.17
2022-09-18T15:09:48.844Z,3.57
2022-09-18T15:12:19.820Z,4.10
2022-09-18T15:14:50.012Z,4.00
2022-09-18T15:17:20.037Z,4.10
2022-09-18T15:19:59.006Z,5.03
2022-09-18T15:22:28.231Z,5.00
2022-09-18T15:25:00.610Z,4.40
2022-09-18T15:27:29.567Z,3.73
2022-09-18T15:30:01.020Z,3.93
2022-09-18T15:32:37.662Z,3.67
2022-09-18T15:35:08.638Z,4.07
2022-09-18T15:37:38.194Z,3.97
2022-09-18T15:40:08.317Z,3.40
2022-09-18T15:42:38.031Z,2.90
2022-09-18T15:45:21.708Z,2.57
2022-09-18T15:47:51.818Z,2.70
2022-09-18T15:50:31.612Z,2.10
2022-09-18T15:53:05.908Z,2.03
2022-09-18T15:55:35.693Z,2.40
2022-09-18T15:58:05.547Z,2.00
2022-09-18T16:00:36.529Z,2.20
2022-09-18T16:03:07.795Z,1.80
2022-09-18T16:05:39.281Z,1.80
2022-09-18T16:08:17.603Z,1.77
2022-09-18T16:10:48.833Z,1.60
2022-09-18T16:13:33.317Z,1.43
2022-09-18T16:16:15.776Z,1.50
2022-09-18T16:18:52.298Z,1.47
2022-09-18T16:21:21.344Z,1.27
2022-09-18T16:23:52.991Z,1.60
2022-09-18T16:26:26.799Z,1.37
2022-09-18T16:28:56.873Z,1.43
2022-09-18T16:31:27.003Z,1.27
2022-09-18T16:34:01.059Z,1.10
2022-09-18T16:36:31.461Z,1.23
2022-09-18T16:39:01.405Z,1.13
2022-09-18T16:41:30.264Z,1.30
2022-09-18T16:43:59.999Z,1.33
2022-09-18T16:46:30.724Z,1.37
2022-09-18T16:49:01.487Z,1.07
2022-09-18T16:51:30.033Z,1.13
2022-09-18T16:53:58.604Z,1.20
2022-09-18T16:56:28.181Z,1.10
2022-09-18T16:58:57.751Z,1.37
2022-09-18T17:01:26.587Z,1.30
2022-09-18T17:03:55.765Z,1.43
2022-09-18T17:06:25.637Z,1.20
2022-09-18T17:08:54.196Z,1.40
2022-09-18T17:11:22.793Z,1.60
2022-09-18T17:13:51.316Z,1.50
2022-09-18T17:16:35.463Z,1.57
2022-09-18T17:19:08.967Z,1.67
2022-09-18T17:21:39.744Z,1.70
2022-09-18T17:24:08.332Z,1.60
2022-09-18T17:26:37.447Z,1.73
2022-09-18T17:29:06.034Z,1.90
2022-09-18T17:31:34.858Z,1.70
2022-09-18T17:34:03.538Z,1.80
2022-09-18T17:36:32.103Z,1.73
2022-09-18T17:39:02.636Z,1.90
2022-09-18T17:41:32.995Z,1.90
2022-09-18T17:44:01.642Z,1.97
2022-09-18T17:46:30.290Z,2.40
2022-09-18T17:48:59.513Z,2.10
2022-09-18T17:51:29.468Z,2.17
2022-09-18T17:53:59.552Z,2.40
2022-09-18T17:56:30.654Z,2.20
2022-09-18T17:59:00.275Z,2.10
2022-09-18T18:01:29.317Z,2.30
2022-09-18T18:03:57.964Z,1.90
2022-09-18T18:06:26.555Z,1.80
2022-09-18T18:08:56.022Z,1.80
2022-09-18T18:11:25.445Z,2.00
2022-09-18T18:13:56.157Z,1.90
2022-09-18T18:16:27.362Z,2.20
2022-09-18T18:18:57.130Z,1.80
2022-09-18T18:21:26.159Z,2.07
2022-09-18T18:23:56.171Z,1.90
2022-09-18T18:26:26.728Z,1.90
2022-09-18T18:28:56.639Z,1.87
2022-09-18T18:31:25.949Z,1.90
2022-09-18T18:33:55.505Z,2.00
2022-09-18T18:36:25.540Z,1.87
2022-09-18T18:38:54.911Z,2.10
2022-09-18T18:41:24.586Z,1.17
2022-09-18T18:43:55.412Z,0.83
2022-09-18T18:46:26.263Z,0.70
2022-09-18T18:48:59.932Z,0.60
2022-09-18T18:51:28.568Z,0.50
2022-09-18T18:53:57.534Z,0.60
2022-09-18T18:56:26.112Z,0.60
2022-09-18T18:58:57.333Z,0.53
2022-09-18T19:01:27.351Z,0.70
2022-09-18T19:03:57.594Z,0.60
2022-09-18T19:06:27.034Z,0.77
2022-09-18T19:08:58.928Z,0.70
2022-09-18T19:11:28.693Z,0.57
2022-09-18T19:13:57.981Z,0.50
2022-09-18T19:16:28.440Z,0.60
2022-09-18T19:18:59.620Z,0.43
2022-09-18T19:21:28.551Z,0.70
2022-09-18T19:23:59.141Z,0.70
2022-09-18T19:26:28.337Z,1.00
2022-09-18T19:28:57.992Z,1.00
2022-09-18T19:31:28.457Z,0.90
2022-09-18T19:33:57.830Z,0.90
2022-09-18T19:36:29.990Z,0.70
2022-09-18T19:38:59.099Z,0.80
2022-09-18T19:41:33.076Z,0.70
2022-09-18T19:44:02.641Z,0.67
2022-09-18T19:46:33.611Z,0.90
2022-09-18T19:49:02.240Z,0.70
2022-09-18T19:51:31.729Z,0.90
2022-09-18T19:54:00.227Z,0.77
2022-09-18T19:56:42.695Z,1.00
2022-09-18T19:59:11.912Z,0.80
2022-09-18T20:01:41.803Z,1.03
2022-09-18T20:04:10.571Z,1.10
2022-09-18T20:06:40.326Z,0.90
2022-09-18T20:09:08.957Z,0.90
2022-09-18T20:11:38.497Z,0.90
2022-09-18T20:14:07.053Z,0.90
2022-09-18T20:16:35.625Z,1.00
2022-09-18T20:19:05.956Z,0.90
2022-09-18T20:21:35.411Z,0.80
2022-09-18T20:24:03.935Z,1.10
2022-09-18T20:26:32.679Z,0.90
2022-09-18T20:29:01.251Z,0.87
2022-09-18T20:31:29.931Z,0.90
2022-09-18T20:33:58.959Z,1.03
2022-09-18T20:36:30.533Z,1.10
2022-09-18T20:39:00.838Z,0.80
2022-09-18T20:41:29.878Z,1.00
2022-09-18T20:44:01.059Z,0.90
2022-09-18T20:46:30.428Z,1.00
2022-09-18T20:49:01.417Z,1.10
2022-09-18T20:51:34.574Z,1.00
2022-09-18T20:54:03.932Z,1.10
2022-09-18T20:56:33.356Z,1.37
2022-09-18T20:59:04.728Z,1.20
2022-09-18T21:01:37.704Z,1.00
2022-09-18T21:04:07.370Z,0.93
2022-09-18T21:06:38.205Z,0.90
2022-09-18T21:09:08.137Z,1.27
2022-09-18T21:11:38.070Z,1.10
2022-09-18T21:14:08.580Z,1.10
2022-09-18T21:16:39.133Z,1.00
2022-09-18T21:19:07.684Z,1.00
2022-09-18T21:21:37.588Z,1.40
2022-09-18T21:24:06.538Z,1.00
2022-09-18T21:26:36.807Z,1.20
2022-09-18T21:29:06.500Z,1.10
2022-09-18T21:31:42.377Z,1.00
2022-09-18T21:34:11.339Z,1.00
2022-09-18T21:36:43.881Z,0.93
2022-09-18T21:39:13.096Z,1.20
2022-09-18T21:41:45.906Z,0.90
2022-09-18T21:44:15.475Z,1.40
2022-09-18T21:46:45.746Z,1.00
2022-09-18T21:49:16.044Z,0.90
2022-09-18T21:51:46.624Z,1.10
2022-09-18T21:54:16.219Z,1.53
2022-09-18T21:56:45.570Z,1.13
2022-09-18T21:59:14.164Z,1.30
2022-09-18T22:01:43.507Z,1.13
2022-09-18T22:04:13.293Z,1.40
2022-09-18T22:06:42.882Z,1.20
2022-09-18T22:09:13.823Z,1.20
2022-09-18T22:11:42.765Z,1.27
2022-09-18T22:14:13.835Z,1.40
2022-09-18T22:16:42.978Z,1.33
2022-09-18T22:19:11.520Z,1.40
2022-09-18T22:21:40.725Z,2.10
2022-09-18T22:24:10.177Z,1.83
2022-09-18T22:26:41.165Z,2.17
2022-09-18T22:29:10.515Z,2.13
2022-09-18T22:31:39.936Z,2.00
2022-09-18T22:34:08.512Z,2.10
2022-09-18T22:36:37.036Z,2.67
2022-09-18T22:39:05.556Z,2.23
2022-09-18T22:41:34.139Z,2.20
2022-09-18T22:44:04.210Z,2.67
2022-09-18T22:46:32.823Z,2.33
2022-09-18T22:49:01.440Z,2.27
2022-09-18T22:51:30.044Z,2.30
2022-09-18T22:53:59.759Z,2.07
2022-09-18T22:56:29.494Z,2.20
2022-09-18T22:58:58.625Z,2.30
2022-09-18T23:01:31.048Z,2.43
2022-09-18T23:04:01.464Z,2.27
2022-09-18T23:06:30.108Z,2.00
2022-09-18T23:08:59.956Z,2.00
2022-09-18T23:11:29.520Z,1.73
2022-09-18T23:13:59.126Z,1.70
2022-09-18T23:16:30.261Z,1.70
2022-09-18T23:18:59.832Z,2.17
2022-09-18T23:21:29.064Z,2.10
2022-09-18T23:23:57.970Z,2.10
2022-09-18T23:26:27.724Z,1.80
2022-09-18T23:28:58.036Z,2.20
2022-09-18T23:31:27.627Z,2.33
2022-09-18T23:33:58.593Z,1.80
2022-09-18T23:36:28.453Z,2.47
2022-09-18T23:38:57.940Z,2.60
2022-09-18T23:41:26.999Z,2.57
2022-09-18T23:43:56.028Z,2.70
2022-09-18T23:46:25.335Z,2.77
2022-09-18T23:48:55.666Z,3.40
2022-09-18T23:51:27.085Z,3.40
2022-09-18T23:53:56.692Z,3.43
2022-09-18T23:56:25.722Z,3.40
2022-09-18T23:58:55.239Z,3.70
